Time;durP1;ratioP1;P1;durP2;ratioP2;P2;SDS_P1;SDS_P2;PMS_P1;PMS_P2;Temp;Humidity;BMP_temperature;BMP_pressure;BME280_temperature;BME280_humidity;BME280_pressure;Samples;Min_cycle;Max_cycle;Signal;HPM_P1;HPM_P2
2021/12/03 00:00:23;;;;;;;3.27;3.07;;;4.30;55.70;;;;;;21356;6653;66392;-86
2021/12/03 00:02:49;;;;;;;4.68;4.30;;;4.10;56.10;;;;;;21165;6661;272621;-86
2021/12/03 00:05:15;;;;;;;4.65;4.30;;;4.50;55.70;;;;;;21136;6651;330156;-86
2021/12/03 00:07:42;;;;;;;4.20;3.80;;;4.50;55.20;;;;;;21331;6661;67275;-86
2021/12/03 00:10:07;;;;;;;3.40;3.20;;;4.50;55.20;;;;;;21347;6653;68078;-85
2021/12/03 00:12:33;;;;;;;3.47;3.27;;;4.00;56.30;;;;;;21346;6653;67047;-86
2021/12/03 00:14:58;;;;;;;3.83;3.53;;;4.00;56.30;;;;;;21354;6653;66794;-86
2021/12/03 00:17:24;;;;;;;3.75;3.45;;;3.80;56.90;;;;;;21395;6653;66357;-86
2021/12/03 00:19:49;;;;;;;4.00;3.60;;;3.70;57.40;;;;;;21415;6653;67170;-88
2021/12/03 00:22:15;;;;;;;4.80;4.50;;;3.60;57.90;;;;;;21111;6661;331574;-86
2021/12/03 00:24:40;;;;;;;4.30;4.00;;;3.70;58.00;;;;;;21362;6653;67112;-86
2021/12/03 00:27:06;;;;;;;4.53;4.20;;;3.80;57.60;;;;;;21351;6653;66291;-87
2021/12/03 00:29:32;;;;;;;4.10;3.80;;;3.70;57.80;;;;;;21350;6653;67362;-91
2021/12/03 00:31:57;;;;;;;4.65;3.90;;;3.60;58.10;;;;;;21347;6653;66966;-86
2021/12/03 00:34:24;;;;;;;3.70;3.40;;;3.40;57.80;;;;;;21353;6653;73053;-87
2021/12/03 00:36:50;;;;;;;4.53;4.20;;;3.30;58.60;;;;;;21353;6653;67406;-86
2021/12/03 00:39:14;;;;;;;4.10;3.80;;;3.30;58.90;;;;;;21348;6653;71346;-87
2021/12/03 00:41:46;;;;;;;5.10;4.70;;;3.20;59.10;;;;;;21130;6653;331310;-86
2021/12/03 00:44:05;;;;;;;4.83;4.53;;;3.40;58.60;;;;;;21342;6653;67384;-86
2021/12/03 00:46:31;;;;;;;5.22;4.80;;;3.50;58.70;;;;;;21363;6653;66280;-87
2021/12/03 00:48:56;;;;;;;4.20;3.90;;;3.40;58.30;;;;;;21361;6653;66695;-87
2021/12/03 00:51:22;;;;;;;4.30;3.97;;;3.30;58.60;;;;;;21409;6653;66391;-87
2021/12/03 00:53:47;;;;;;;8.13;4.10;;;3.20;59.00;;;;;;21355;6653;69619;-87
2021/12/03 00:56:13;;;;;;;5.43;5.00;;;3.10;59.40;;;;;;21134;6653;305269;-87
2021/12/03 00:58:38;;;;;;;5.22;4.82;;;3.30;59.10;;;;;;21126;6653;301189;-87
2021/12/03 01:01:04;;;;;;;4.80;4.40;;;3.80;58.00;;;;;;21142;6653;280472;-87
2021/12/03 01:03:29;;;;;;;4.90;4.60;;;4.20;56.80;;;;;;21131;6653;313925;-87
2021/12/03 01:05:55;;;;;;;4.93;4.60;;;4.50;55.90;;;;;;21139;6653;330523;-87
2021/12/03 01:08:21;;;;;;;4.80;4.50;;;4.70;54.70;;;;;;21140;6653;278126;-87
2021/12/03 01:10:46;;;;;;;4.57;4.27;;;4.90;54.00;;;;;;21133;6653;276543;-89
2021/12/03 01:13:12;;;;;;;4.68;4.28;;;5.00;53.50;;;;;;21182;6653;300290;-87
2021/12/03 01:15:37;;;;;;;4.53;4.03;;;5.10;53.00;;;;;;21389;6651;68340;-90
2021/12/03 01:18:03;;;;;;;5.00;4.70;;;4.90;53.50;;;;;;21136;6652;334222;-86
2021/12/03 01:20:30;;;;;;;5.87;5.37;;;4.90;53.60;;;;;;21150;6653;329755;-87
2021/12/03 01:22:54;;;;;;;4.60;4.20;;;5.00;53.30;;;;;;21409;6653;67168;-87
2021/12/03 01:25:20;;;;;;;5.20;4.80;;;4.80;53.50;;;;;;21129;6653;334432;-88
2021/12/03 01:27:45;;;;;;;5.32;4.20;;;4.80;53.60;;;;;;21349;6653;68194;-87
2021/12/03 01:30:11;;;;;;;4.93;4.57;;;4.60;53.90;;;;;;21126;6653;334921;-87
2021/12/03 01:32:37;;;;;;;4.30;4.00;;;4.70;53.90;;;;;;21344;6653;66503;-87
2021/12/03 01:35:03;;;;;;;4.00;3.70;;;4.60;54.10;;;;;;21382;6653;66779;-88
2021/12/03 01:37:28;;;;;;;3.83;3.43;;;4.30;54.80;;;;;;21349;6653;66826;-87
2021/12/03 01:39:54;;;;;;;4.75;4.35;;;4.10;55.40;;;;;;21180;6653;306791;-87
2021/12/03 01:42:19;;;;;;;4.80;4.50;;;4.20;55.40;;;;;;21151;6653;276686;-87
2021/12/03 01:44:45;;;;;;;3.70;3.50;;;4.50;54.40;;;;;;21360;6653;66810;-87
2021/12/03 01:47:10;;;;;;;4.80;4.40;;;4.50;54.40;;;;;;21139;6653;292619;-87
2021/12/03 01:49:37;;;;;;;4.70;4.40;;;4.70;53.70;;;;;;21119;6653;305171;-87
2021/12/03 01:52:02;;;;;;;5.23;4.83;;;4.70;53.60;;;;;;21080;6661;272890;-88
2021/12/03 01:54:28;;;;;;;5.37;4.97;;;5.00;53.60;;;;;;21129;6653;302294;-87
2021/12/03 01:56:53;;;;;;;5.13;4.73;;;5.10;52.70;;;;;;21137;6653;301522;-87
2021/12/03 01:59:19;;;;;;;4.70;4.40;;;5.20;52.40;;;;;;21134;6653;301504;-87
2021/12/03 02:01:45;;;;;;;4.43;3.97;;;5.30;52.30;;;;;;21348;6653;67383;-88
2021/12/03 02:04:11;;;;;;;4.27;3.97;;;4.70;53.60;;;;;;21353;6653;66349;-87
2021/12/03 02:06:37;;;;;;;5.53;5.13;;;4.70;53.60;;;;;;21131;6653;303609;-87
2021/12/03 02:09:02;;;;;;;4.90;4.50;;;4.70;54.00;;;;;;21347;6653;69942;-87
2021/12/03 02:11:28;;;;;;;4.43;4.03;;;4.40;55.00;;;;;;21341;6653;93932;-87
2021/12/03 02:13:54;;;;;;;5.60;5.20;;;4.40;55.00;;;;;;21126;6653;301477;-87
2021/12/03 02:16:20;;;;;;;4.68;4.28;;;4.40;54.70;;;;;;21351;6653;66347;-86
2021/12/03 02:18:46;;;;;;;5.50;5.00;;;4.40;54.80;;;;;;21138;6653;273682;-86
2021/12/03 02:21:11;;;;;;;4.68;4.37;;;4.50;54.60;;;;;;21360;6653;66795;-88
2021/12/03 02:23:37;;;;;;;5.87;5.30;;;4.50;54.70;;;;;;21138;6653;272430;-87
2021/12/03 02:26:02;;;;;;;5.47;5.07;;;4.50;54.40;;;;;;21192;6653;300460;-86
2021/12/03 02:28:28;;;;;;;5.68;5.30;;;4.80;53.70;;;;;;21161;6651;325316;-87
2021/12/03 02:30:53;;;;;;;6.12;5.10;;;5.00;52.90;;;;;;21429;6653;66244;-90
2021/12/03 02:33:19;;;;;;;5.93;5.43;;;4.80;53.00;;;;;;21136;6653;324882;-87
2021/12/03 02:35:45;;;;;;;6.00;5.50;;;4.80;53.20;;;;;;21132;6653;331027;-87
2021/12/03 02:38:10;;;;;;;5.20;4.80;;;4.90;52.50;;;;;;21352;6653;66645;-87
2021/12/03 02:40:36;;;;;;;5.93;5.53;;;4.80;52.80;;;;;;21133;6653;304211;-87
2021/12/03 02:43:01;;;;;;;5.78;5.37;;;4.70;53.00;;;;;;21131;6653;312062;-89
2021/12/03 02:45:27;;;;;;;6.00;5.50;;;4.80;52.70;;;;;;21133;6653;305420;-87
2021/12/03 02:47:52;;;;;;;6.30;5.90;;;5.00;52.20;;;;;;21135;6653;301783;-87
2021/12/03 02:50:18;;;;;;;6.33;4.80;;;5.10;51.80;;;;;;21326;6661;66405;-89
2021/12/03 02:52:44;;;;;;;4.95;4.60;;;4.80;52.10;;;;;;21353;6653;66934;-87
2021/12/03 02:55:09;;;;;;;6.70;6.30;;;4.40;53.00;;;;;;21127;6653;330101;-88
2021/12/03 02:57:35;;;;;;;7.17;6.47;;;4.40;53.40;;;;;;21133;6653;305372;-87
2021/12/03 03:00:00;;;;;;;6.53;5.47;;;4.60;53.10;;;;;;21353;6653;66504;-87
2021/12/03 03:02:26;;;;;;;5.12;4.72;;;4.50;53.10;;;;;;21354;6653;70475;-86
2021/12/03 03:04:51;;;;;;;6.72;6.22;;;4.20;53.90;;;;;;21137;6653;317000;-88
2021/12/03 03:07:17;;;;;;;6.10;5.60;;;4.30;54.00;;;;;;21356;6653;66291;-87
2021/12/03 03:09:44;;;;;;;6.57;6.10;;;4.20;54.10;;;;;;21142;6653;272852;-87
2021/12/03 03:12:08;;;;;;;6.37;5.87;;;4.30;54.00;;;;;;21352;6653;67642;-87
2021/12/03 03:14:34;;;;;;;7.25;6.70;;;4.20;54.00;;;;;;21137;6653;300615;-87
2021/12/03 03:16:59;;;;;;;6.18;5.68;;;4.30;54.10;;;;;;21410;6653;66808;-87
2021/12/03 03:19:26;;;;;;;5.87;5.20;;;4.10;54.80;;;;;;21391;6653;66683;-92
2021/12/03 03:21:51;;;;;;;6.83;6.33;;;4.10;54.70;;;;;;21141;6653;272359;-87
2021/12/03 03:24:17;;;;;;;6.03;5.43;;;4.20;54.80;;;;;;21361;6653;66688;-87
2021/12/03 03:26:42;;;;;;;5.55;5.20;;;4.20;54.70;;;;;;21376;6653;66883;-88
2021/12/03 03:29:08;;;;;;;6.10;5.63;;;4.10;55.20;;;;;;21164;6653;299957;-87
2021/12/03 03:31:33;;;;;;;6.68;6.07;;;4.20;55.40;;;;;;21154;6653;301410;-87
2021/12/03 03:33:59;;;;;;;6.30;5.80;;;4.50;53.60;;;;;;21133;6653;301033;-87
2021/12/03 03:36:25;;;;;;;6.10;5.60;;;4.80;52.90;;;;;;21350;6653;67283;-86
2021/12/03 03:38:50;;;;;;;6.60;6.20;;;4.70;52.90;;;;;;21134;6651;316819;-87
2021/12/03 03:41:16;;;;;;;6.53;6.13;;;4.80;52.90;;;;;;21140;6652;275088;-87
2021/12/03 03:43:41;;;;;;;5.50;5.10;;;4.90;52.30;;;;;;21357;6653;66470;-87
2021/12/03 03:46:07;;;;;;;6.47;6.00;;;4.80;52.40;;;;;;21167;6653;328599;-87
2021/12/03 03:48:32;;;;;;;6.57;6.18;;;4.80;52.40;;;;;;21184;6653;328656;-90
2021/12/03 03:50:58;;;;;;;5.90;5.50;;;5.00;52.30;;;;;;21356;6653;67530;-87
2021/12/03 03:53:23;;;;;;;6.43;5.93;;;4.80;52.30;;;;;;21135;6653;284218;-87
2021/12/03 03:55:49;;;;;;;5.70;5.27;;;4.80;52.40;;;;;;21355;6653;72381;-88
2021/12/03 03:58:15;;;;;;;6.80;6.35;;;4.60;52.70;;;;;;21143;6653;290037;-87
2021/12/03 04:00:41;;;;;;;5.63;5.23;;;4.60;52.70;;;;;;21362;6653;66878;-88
2021/12/03 04:03:07;;;;;;;6.93;6.53;;;4.50;52.80;;;;;;21138;6653;271905;-88
2021/12/03 04:05:32;;;;;;;7.27;6.77;;;4.50;53.40;;;;;;21148;6653;332811;-88
2021/12/03 04:07:58;;;;;;;6.07;5.68;;;4.70;53.00;;;;;;21396;6653;66800;-88
2021/12/03 04:10:23;;;;;;;5.40;5.00;;;4.60;53.00;;;;;;21352;6653;71262;-87
2021/12/03 04:12:49;;;;;;;7.27;6.67;;;4.30;53.70;;;;;;21132;6653;305154;-87
2021/12/03 04:15:14;;;;;;;5.95;5.53;;;4.30;53.80;;;;;;21351;6653;66800;-87
2021/12/03 04:17:40;;;;;;;7.27;6.77;;;4.20;53.80;;;;;;21137;6653;301471;-87
2021/12/03 04:20:06;;;;;;;7.12;6.65;;;4.30;53.90;;;;;;21138;6653;302026;-88
2021/12/03 04:22:32;;;;;;;5.83;5.37;;;4.50;53.20;;;;;;21342;6653;66295;-87
2021/12/03 04:24:57;;;;;;;6.20;5.80;;;4.40;53.30;;;;;;21326;6661;70787;-87
2021/12/03 04:27:22;;;;;;;7.37;6.78;;;4.10;54.00;;;;;;21135;6653;272680;-90
2021/12/03 04:29:48;;;;;;;6.15;5.65;;;4.20;54.10;;;;;;21354;6653;66786;-88
2021/12/03 04:32:15;;;;;;;7.10;6.60;;;4.20;54.70;;;;;;21127;6653;331074;-87
2021/12/03 04:34:40;;;;;;;7.07;6.57;;;4.20;54.00;;;;;;21128;6653;301981;-87
2021/12/03 04:37:06;;;;;;;6.47;5.97;;;4.40;54.20;;;;;;21360;6653;67250;-89
2021/12/03 04:39:32;;;;;;;6.17;5.63;;;4.40;53.40;;;;;;21355;6653;66859;-87
2021/12/03 04:41:57;;;;;;;6.53;5.93;;;4.20;54.10;;;;;;21379;6653;66778;-87
2021/12/03 04:44:23;;;;;;;6.75;6.25;;;3.90;54.80;;;;;;21142;6653;293521;-92
2021/12/03 04:46:48;;;;;;;6.47;5.97;;;4.00;54.70;;;;;;21375;6653;66278;-88
2021/12/03 04:49:14;;;;;;;5.93;5.43;;;4.00;54.60;;;;;;21368;6653;72946;-88
2021/12/03 04:51:40;;;;;;;5.10;4.80;;;3.80;55.00;;;;;;21362;6652;66761;-88
2021/12/03 04:54:05;;;;;;;5.57;5.18;;;3.70;55.60;;;;;;21382;6653;66887;-88
2021/12/03 04:56:31;;;;;;;7.30;6.85;;;3.60;56.10;;;;;;21127;6653;335110;-88
2021/12/03 04:58:56;;;;;;;7.60;7.00;;;3.70;55.60;;;;;;21137;6653;301912;-88
2021/12/03 05:01:22;;;;;;;7.00;6.50;;;4.10;54.40;;;;;;21139;6653;310582;-87
2021/12/03 05:03:47;;;;;;;7.00;6.50;;;4.40;53.30;;;;;;21211;6653;271747;-86
2021/12/03 05:06:16;;;;;;;5.80;5.40;;;4.70;52.60;;;;;;21362;6653;67750;-87
2021/12/03 05:08:38;;;;;;;5.67;5.23;;;4.60;52.80;;;;;;21350;6653;67361;-88
2021/12/03 05:11:04;;;;;;;6.37;5.97;;;4.30;53.50;;;;;;21151;6653;302219;-88
2021/12/03 05:13:30;;;;;;;6.43;5.87;;;4.40;53.20;;;;;;21355;6653;66797;-88
2021/12/03 05:15:55;;;;;;;5.12;4.72;;;4.30;53.20;;;;;;21341;6653;89166;-86
2021/12/03 05:18:21;;;;;;;6.43;5.93;;;4.10;53.80;;;;;;21131;6653;301098;-87
2021/12/03 05:20:46;;;;;;;6.43;6.03;;;4.10;53.50;;;;;;21126;6653;328721;-87
2021/12/03 05:23:12;;;;;;;5.70;5.30;;;4.40;52.60;;;;;;21346;6653;67215;-87
2021/12/03 05:25:37;;;;;;;6.73;6.27;;;4.40;52.80;;;;;;21129;6653;323911;-86
2021/12/03 05:28:04;;;;;;;5.70;5.18;;;4.40;52.80;;;;;;21355;6653;66847;-90
2021/12/03 05:30:29;;;;;;;5.00;4.70;;;4.30;52.70;;;;;;21352;6653;67733;-86
2021/12/03 05:32:55;;;;;;;5.07;4.67;;;4.10;53.30;;;;;;21357;6653;67056;-87
2021/12/03 05:35:20;;;;;;;5.07;4.78;;;3.90;54.30;;;;;;21355;6653;66987;-87
2021/12/03 05:37:46;;;;;;;5.30;4.80;;;3.70;54.50;;;;;;21353;6653;66357;-87
2021/12/03 05:40:11;;;;;;;6.40;5.90;;;3.60;54.90;;;;;;21136;6653;285101;-87
2021/12/03 05:42:38;;;;;;;5.87;5.47;;;3.70;54.10;;;;;;21138;6653;301013;-88
2021/12/03 05:45:04;;;;;;;6.03;5.63;;;4.00;52.80;;;;;;21184;6653;305535;-94
2021/12/03 05:47:29;;;;;;;5.67;5.10;;;4.30;51.70;;;;;;21356;6661;66702;-88
2021/12/03 05:49:55;;;;;;;4.80;4.50;;;4.20;51.90;;;;;;21342;6653;66742;-89
2021/12/03 05:52:21;;;;;;;4.75;4.35;;;3.70;54.10;;;;;;21353;6653;66794;-90
2021/12/03 05:54:48;;;;;;;4.97;4.67;;;3.50;54.10;;;;;;21332;6661;66398;-89
2021/12/03 05:57:13;;;;;;;4.80;4.40;;;3.50;54.10;;;;;;21354;6653;66796;-88
2021/12/03 05:59:39;;;;;;;5.97;5.57;;;3.30;54.50;;;;;;21138;6653;301472;-87
2021/12/03 06:02:04;;;;;;;5.70;5.10;;;3.50;53.90;;;;;;21352;6652;66963;-89
2021/12/03 06:04:30;;;;;;;6.50;6.10;;;3.50;53.80;;;;;;21136;6652;282440;-89
2021/12/03 06:06:55;;;;;;;6.55;6.10;;;3.70;53.40;;;;;;21136;6653;335019;-88
2021/12/03 06:09:21;;;;;;;6.10;5.60;;;4.00;52.40;;;;;;21353;6653;67280;-90
2021/12/03 06:11:46;;;;;;;6.87;6.37;;;4.00;52.50;;;;;;21137;6653;305294;-89
2021/12/03 06:14:12;;;;;;;6.00;5.40;;;4.00;52.30;;;;;;21372;6653;66831;-88
2021/12/03 06:16:38;;;;;;;5.50;5.03;;;3.90;52.60;;;;;;21370;6653;66591;-88
2021/12/03 06:19:14;;;;;;;5.10;4.70;;;3.70;53.20;;;;;;21390;6653;66745;-87
2021/12/03 06:21:33;;;;;;;6.30;5.90;;;3.50;53.90;;;;;;21376;6646;67254;-87
2021/12/03 06:23:58;;;;;;;6.82;6.22;;;3.40;54.60;;;;;;21147;6646;302495;-88
2021/12/03 06:26:24;;;;;;;6.07;5.68;;;3.60;54.30;;;;;;21360;6646;67174;-86
2021/12/03 06:28:50;;;;;;;5.77;5.27;;;3.50;55.00;;;;;;21374;6646;66260;-87
2021/12/03 06:31:15;;;;;;;5.97;5.57;;;3.50;55.00;;;;;;21355;6646;89084;-88
2021/12/03 06:33:42;;;;;;;6.68;6.18;;;3.70;57.90;;;;;;21370;6646;66429;-87
2021/12/03 06:36:07;;;;;;;6.60;5.97;;;3.70;57.90;;;;;;21378;6646;67425;-88
2021/12/03 06:38:33;;;;;;;6.47;6.00;;;3.90;58.60;;;;;;21371;6646;68230;-90
2021/12/03 06:40:59;;;;;;;6.17;5.57;;;4.10;59.00;;;;;;21377;6646;66307;-89
2021/12/03 06:43:24;;;;;;;6.60;6.10;;;4.20;59.40;;;;;;21377;6646;66903;-87
2021/12/03 06:45:50;;;;;;;6.50;6.00;;;4.40;59.70;;;;;;21159;6646;329661;-87
2021/12/03 06:48:15;;;;;;;7.22;6.72;;;4.70;60.70;;;;;;21191;6646;283299;-87
2021/12/03 06:50:43;;;;;;;6.77;6.27;;;5.30;60.70;;;;;;21405;6646;66643;-89
2021/12/03 06:53:10;;;;;;;6.82;6.43;;;5.40;59.80;;;;;;21154;6646;303437;-87
2021/12/03 06:56:10;;;;;;;7.03;6.57;;;5.70;60.10;;;;;;21156;6646;272924;-88
2021/12/03 06:58:04;;;;;;;6.70;6.20;;;6.00;57.70;;;;;;20972;6646;299671;-86
2021/12/03 07:00:29;;;;;;;5.90;5.43;;;6.20;54.10;;;;;;21409;6646;67615;-85
2021/12/03 07:02:55;;;;;;;5.70;5.20;;;6.00;54.10;;;;;;21368;6646;67042;-87
2021/12/03 07:05:20;;;;;;;5.43;5.03;;;5.60;54.60;;;;;;21380;6646;73571;-87
2021/12/03 07:07:46;;;;;;;7.30;6.73;;;5.30;55.20;;;;;;21157;6646;301290;-89
2021/12/03 07:10:11;;;;;;;6.00;5.50;;;5.30;54.50;;;;;;21373;6646;66955;-86
2021/12/03 07:12:37;;;;;;;7.25;6.68;;;5.20;54.80;;;;;;21157;6646;300710;-87
2021/12/03 07:15:03;;;;;;;6.37;5.97;;;5.30;54.80;;;;;;21151;6645;329868;-86
2021/12/03 07:17:32;;;;;;;6.63;6.23;;;5.60;55.40;;;;;;21150;6646;304493;-86
2021/12/03 07:19:57;;;;;;;6.63;6.23;;;5.90;54.70;;;;;;21139;6646;271704;-86
2021/12/03 07:22:20;;;;;;;6.70;6.20;;;5.80;54.60;;;;;;21144;6646;320521;-86
2021/12/03 07:24:46;;;;;;;7.60;7.00;;;6.00;53.30;;;;;;21159;6646;270726;-85
2021/12/03 07:27:12;;;;;;;6.37;5.97;;;6.00;53.30;;;;;;21373;6646;67184;-83
2021/12/03 07:29:37;;;;;;;6.40;5.87;;;5.80;53.80;;;;;;21158;6646;272255;-85
2021/12/03 07:32:03;;;;;;;6.70;6.10;;;5.70;53.30;;;;;;21151;6646;288066;-87
2021/12/03 07:34:29;;;;;;;6.20;5.70;;;5.70;53.00;;;;;;21374;6646;66726;-85
2021/12/03 07:36:54;;;;;;;6.20;5.70;;;5.50;53.60;;;;;;21429;6646;66200;-85
2021/12/03 07:39:20;;;;;;;6.53;5.93;;;5.20;54.90;;;;;;21169;6646;304679;-87
2021/12/03 07:41:45;;;;;;;5.47;5.00;;;5.30;56.90;;;;;;21381;6646;66364;-85
2021/12/03 07:44:11;;;;;;;6.00;5.60;;;5.30;56.50;;;;;;21161;6646;308248;-85
2021/12/03 07:46:36;;;;;;;5.90;5.47;;;5.40;55.80;;;;;;21162;6646;329194;-86
2021/12/03 07:49:03;;;;;;;5.43;5.03;;;5.50;53.90;;;;;;21393;6646;88456;-84
2021/12/03 07:51:28;;;;;;;5.10;4.77;;;5.50;53.90;;;;;;21374;6646;66643;-86
2021/12/03 07:53:54;;;;;;;5.20;4.77;;;5.30;55.10;;;;;;21375;6646;66227;-85
2021/12/03 07:56:19;;;;;;;5.60;5.28;;;5.20;56.10;;;;;;21166;6661;300520;-85
2021/12/03 07:58:45;;;;;;;5.25;4.85;;;5.50;57.20;;;;;;21245;6653;66339;-84
2021/12/03 08:01:12;;;;;;;5.77;5.40;;;5.60;57.30;;;;;;21327;6653;67477;-85
2021/12/03 08:03:37;;;;;;;5.90;5.60;;;5.60;57.30;;;;;;21129;6653;272073;-87
2021/12/03 08:06:09;;;;;;;5.50;5.17;;;5.80;57.20;;;;;;21127;6653;302361;-85
2021/12/03 08:08:31;;;;;;;5.00;4.67;;;6.30;56.40;;;;;;21106;6653;331075;-85
2021/12/03 08:10:57;;;;;;;4.85;4.55;;;6.70;54.80;;;;;;21349;6653;67315;-85
2021/12/03 08:13:22;;;;;;;5.07;4.67;;;6.70;53.90;;;;;;21365;6653;66904;-85
2021/12/03 08:15:48;;;;;;;4.80;4.50;;;6.60;54.40;;;;;;21169;6653;304906;-85
2021/12/03 08:18:13;;;;;;;5.30;5.00;;;6.70;52.80;;;;;;21135;6653;283791;-85
2021/12/03 08:20:39;;;;;;;5.40;5.00;;;6.90;52.90;;;;;;21357;6653;77787;-85
2021/12/03 08:23:04;;;;;;;4.68;4.32;;;6.90;53.30;;;;;;21360;6653;67283;-84
2021/12/03 08:25:30;;;;;;;4.30;4.00;;;6.80;54.10;;;;;;21348;6651;66694;-85
2021/12/03 08:27:56;;;;;;;4.30;3.95;;;6.60;54.50;;;;;;21358;6652;66887;-85
2021/12/03 08:30:21;;;;;;;4.70;4.30;;;6.50;54.80;;;;;;21128;6653;331131;-85
2021/12/03 08:32:48;;;;;;;4.72;4.43;;;6.60;53.60;;;;;;21119;6653;330625;-85
2021/12/03 08:35:12;;;;;;;4.60;4.30;;;7.00;52.20;;;;;;21346;6653;67513;-85
2021/12/03 08:37:43;;;;;;;4.87;4.47;;;7.00;52.40;;;;;;21139;6653;301481;-86
2021/12/03 08:40:04;;;;;;;4.47;4.10;;;7.20;51.20;;;;;;21340;6653;66506;-86
2021/12/03 08:42:29;;;;;;;4.45;4.25;;;7.20;51.40;;;;;;21104;6661;283049;-86
2021/12/03 08:44:58;;;;;;;4.75;4.45;;;7.50;51.10;;;;;;21133;6653;301945;-87
2021/12/03 08:47:21;;;;;;;4.33;4.00;;;7.50;51.10;;;;;;21321;6661;66456;-87
2021/12/03 08:49:52;;;;;;;3.95;3.65;;;7.50;51.50;;;;;;21358;6653;66478;-87
2021/12/03 08:52:25;;;;;;;4.50;4.20;;;7.40;52.00;;;;;;21130;6653;286681;-87
2021/12/03 08:54:48;;;;;;;3.83;3.53;;;7.50;51.80;;;;;;21352;6653;66758;-87
2021/12/03 08:57:13;;;;;;;3.83;3.60;;;7.50;52.40;;;;;;21363;6653;66968;-89
2021/12/03 08:59:38;;;;;;;4.40;3.90;;;7.20;51.90;;;;;;21138;6653;301369;-86
2021/12/03 09:02:04;;;;;;;4.40;4.10;;;7.20;51.10;;;;;;21180;6653;303747;-87
2021/12/03 09:04:30;;;;;;;3.60;3.40;;;7.40;50.70;;;;;;21364;6653;67339;-87
2021/12/03 09:06:57;;;;;;;4.27;4.03;;;7.30;51.10;;;;;;21126;6653;333944;-88
2021/12/03 09:09:21;;;;;;;3.57;3.37;;;7.40;52.00;;;;;;21343;6653;71421;-86
2021/12/03 09:11:46;;;;;;;4.27;4.00;;;7.40;51.70;;;;;;21143;6653;272137;-86
2021/12/03 09:14:26;;;;;;;4.20;3.83;;;7.60;52.00;;;;;;21141;6653;305091;-86
2021/12/03 09:16:46;;;;;;;3.60;3.40;;;7.80;49.10;;;;;;21148;6653;301363;-85
2021/12/03 09:19:17;;;;;;;4.10;3.80;;;8.00;46.30;;;;;;21144;6653;300634;-89
2021/12/03 09:21:35;;;;;;;3.72;3.42;;;8.10;47.40;;;;;;21334;6653;69252;-86
2021/12/03 09:24:16;;;;;;;4.23;3.90;;;8.00;47.90;;;;;;21138;6653;301039;-86
2021/12/03 09:26:41;;;;;;;4.53;4.23;;;8.00;49.70;;;;;;21338;6653;66766;-85
2021/12/03 09:29:10;;;;;;;3.63;3.33;;;7.90;50.00;;;;;;21341;6653;67357;-87
2021/12/03 09:31:32;;;;;;;3.87;3.55;;;7.70;50.50;;;;;;21289;6661;89391;-88
2021/12/03 09:33:57;;;;;;;3.80;3.60;;;7.50;51.10;;;;;;21338;6653;67279;-89
2021/12/03 09:36:22;;;;;;;4.00;3.60;;;7.50;51.10;;;;;;21347;6651;66378;-88
2021/12/03 09:38:47;;;;;;;4.47;3.43;;;7.40;51.70;;;;;;21369;6652;66727;-86
2021/12/03 09:41:13;;;;;;;4.32;4.03;;;7.40;51.90;;;;;;21148;6653;276645;-91
2021/12/03 09:43:39;;;;;;;4.70;3.70;;;7.60;50.20;;;;;;21355;6653;67536;-88
2021/12/03 09:46:12;;;;;;;4.35;4.15;;;7.70;49.90;;;;;;21124;6653;331764;-86
2021/12/03 09:48:41;;;;;;;4.15;3.80;;;7.90;47.90;;;;;;21321;6653;68581;-90
2021/12/03 09:50:58;;;;;;;4.17;3.87;;;8.00;48.60;;;;;;21116;6653;287445;-87
2021/12/03 09:53:44;;;;;;;3.77;3.57;;;8.10;49.20;;;;;;21368;6653;67171;-85
2021/12/03 09:55:50;;;;;;;3.47;3.20;;;8.10;49.20;;;;;;21122;6653;300925;-88
2021/12/03 09:58:46;;;;;;;3.57;3.37;;;8.20;46.40;;;;;;21138;6653;305823;-90
2021/12/03 10:03:19;;;;;;;2.47;2.37;;;8.60;46.40;;;;;;21368;6653;66929;-86
2021/12/03 10:06:38;;;;;;;3.13;2.93;;;8.50;46.90;;;;;;21146;6653;277879;-89
2021/12/03 10:11:23;;;;;;;2.50;2.40;;;8.40;47.00;;;;;;21448;6653;66705;-89
2021/12/03 10:13:15;;;;;;;2.93;2.73;;;8.30;46.90;;;;;;21331;6661;67769;-85
2021/12/03 10:15:37;;;;;;;3.10;2.70;;;8.00;47.40;;;;;;21398;6653;67107;-90
2021/12/03 10:18:21;;;;;;;3.40;3.20;;;7.80;48.30;;;;;;21130;6653;301788;-88
2021/12/03 10:21:04;;;;;;;3.55;3.25;;;7.80;46.90;;;;;;21163;6653;334595;-84
2021/12/03 10:24:08;;;;;;;3.33;3.13;;;7.90;47.40;;;;;;21361;6653;66743;-85
2021/12/03 10:41:52;;;;;;;2.90;2.70;;;7.20;47.00;;;;;;21351;6661;66876;-85
2021/12/03 10:44:53;;;;;;;2.70;2.50;;;6.60;48.20;;;;;;21334;6653;72175;-90
2021/12/03 11:11:17;;;;;;;2.97;2.77;;;6.00;50.90;;;;;;21382;6653;66309;-84
2021/12/03 11:16:00;;;;;;;3.50;3.20;;;5.90;51.20;;;;;;21150;6653;289095;-84
2021/12/03 11:29:32;;;;;;;3.22;3.03;;;7.10;48.10;;;;;;21192;6653;329691;-88
2021/12/03 11:36:42;;;;;;;3.50;3.20;;;7.40;46.90;;;;;;21366;6653;66842;-90
2021/12/03 11:55:49;;;;;;;3.00;2.80;;;6.80;49.60;;;;;;20632;6661;312700;-89
2021/12/03 13:08:26;;;;;;;2.30;2.17;;;7.80;44.60;;;;;;21383;6653;67256;-88
2021/12/03 13:56:48;;;;;;;1.80;1.70;;;7.10;47.40;;;;;;21418;6653;66719;-84
2021/12/03 14:42:02;;;;;;;3.35;3.05;;;7.40;46.90;;;;;;21146;6661;272121;-85
2021/12/03 14:44:27;;;;;;;2.93;2.73;;;7.80;45.40;;;;;;21358;6653;66337;-82
2021/12/03 14:50:05;;;;;;;2.70;2.50;;;7.50;46.50;;;;;;21187;6653;329569;-85
2021/12/03 14:52:21;;;;;;;2.60;2.40;;;7.60;45.40;;;;;;21182;6653;66813;-86
2021/12/03 14:57:37;;;;;;;3.60;2.60;;;7.70;45.50;;;;;;21404;6653;66783;-85
2021/12/03 15:00:10;;;;;;;2.33;2.23;;;7.60;46.00;;;;;;21376;6661;72184;-85
2021/12/03 15:05:19;;;;;;;2.10;2.00;;;7.60;46.80;;;;;;21410;6653;66867;-85
2021/12/03 15:07:42;;;;;;;2.62;2.42;;;7.60;47.00;;;;;;21160;6653;329047;-86
2021/12/03 15:10:12;;;;;;;2.70;2.50;;;7.70;46.20;;;;;;21395;6653;66281;-84
2021/12/03 15:13:04;;;;;;;2.47;2.37;;;7.60;46.30;;;;;;21385;6653;66286;-85
2021/12/03 15:22:50;;;;;;;2.57;2.37;;;8.00;45.60;;;;;;20346;6661;271886;-86
2021/12/03 15:25:09;;;;;;;6.80;5.35;;;8.20;44.40;;;;;;21157;6653;270943;-86
2021/12/03 15:33:02;;;;;;;3.70;3.40;;;7.80;46.30;;;;;;21405;6653;66706;-85
2021/12/03 15:35:23;;;;;;;3.83;3.60;;;7.50;47.40;;;;;;21159;6651;311271;-86
2021/12/03 16:05:14;;;;;;;37.40;5.60;;;8.40;42.40;;;;;;21367;6653;66520;-86
2021/12/03 16:10:20;;;;;;;11.97;3.60;;;7.90;43.00;;;;;;21359;6653;66279;-89
2021/12/03 16:21:19;;;;;;;3.73;2.70;;;7.10;44.00;;;;;;21384;6646;66573;-86
2021/12/03 16:45:35;;;;;;;3.60;2.80;;;6.00;42.30;;;;;;21135;6646;301710;-88
2021/12/03 16:53:12;;;;;;;2.87;2.53;;;6.30;41.20;;;;;;21370;6646;66243;-89
2021/12/03 16:55:33;;;;;;;2.80;2.50;;;6.00;42.30;;;;;;21307;6661;71013;-88
2021/12/03 16:57:58;;;;;;;4.25;2.47;;;5.70;42.90;;;;;;21138;6653;271900;-87
2021/12/03 17:00:37;;;;;;;2.63;2.43;;;5.80;42.20;;;;;;21356;6653;66706;-87
2021/12/03 17:47:52;;;;;;;5.47;4.87;;;4.90;43.10;;;;;;21366;6653;66943;-89
2021/12/03 17:50:14;;;;;;;4.37;3.97;;;5.00;43.40;;;;;;21394;6653;68442;-84
2021/12/03 18:00:10;;;;;;;4.03;3.73;;;4.90;43.40;;;;;;21364;6652;66843;-87
2021/12/03 18:18:33;;;;;;;3.73;3.43;;;5.20;42.20;;;;;;21379;6653;66267;-90
2021/12/03 18:56:18;;;;;;;3.60;3.40;;;5.00;41.50;;;;;;21370;6653;67281;-85
2021/12/03 18:58:42;;;;;;;4.03;3.73;;;5.20;41.20;;;;;;21133;6653;274208;-86
2021/12/03 19:01:07;;;;;;;4.87;4.57;;;5.20;41.10;;;;;;21149;6653;272248;-86
2021/12/03 19:09:02;;;;;;;4.03;3.40;;;5.30;41.80;;;;;;21149;6653;307203;-89
2021/12/03 19:11:12;;;;;;;3.37;3.03;;;5.40;41.00;;;;;;21214;6652;66257;-85
2021/12/03 19:13:37;;;;;;;3.20;3.00;;;5.50;41.50;;;;;;21351;6653;66776;-85
2021/12/03 19:15:58;;;;;;;3.53;3.33;;;5.30;42.20;;;;;;21120;6653;272615;-84
2021/12/03 19:18:24;;;;;;;3.67;3.10;;;5.40;41.50;;;;;;21321;6653;69969;-89
2021/12/03 19:20:48;;;;;;;3.87;3.00;;;5.50;42.00;;;;;;21351;6653;67310;-84
2021/12/03 19:23:15;;;;;;;3.50;3.20;;;5.10;42.90;;;;;;21343;6653;66402;-84
2021/12/03 19:25:40;;;;;;;3.50;3.30;;;5.10;42.90;;;;;;21344;6653;71969;-85
2021/12/03 19:28:06;;;;;;;4.07;3.80;;;5.00;43.40;;;;;;21137;6653;275397;-85
2021/12/03 19:30:31;;;;;;;4.00;3.70;;;5.20;42.50;;;;;;21134;6653;301840;-84
2021/12/03 19:32:58;;;;;;;3.87;3.57;;;5.50;41.80;;;;;;21356;6653;66763;-84
2021/12/03 19:35:24;;;;;;;3.53;3.23;;;5.60;42.00;;;;;;21356;6653;67065;-84
2021/12/03 19:37:51;;;;;;;4.10;3.70;;;5.40;42.50;;;;;;21134;6661;310026;-84
2021/12/03 19:40:14;;;;;;;3.85;3.40;;;5.50;41.80;;;;;;21413;6653;66778;-83
2021/12/03 19:42:58;;;;;;;3.73;3.53;;;5.50;42.20;;;;;;21133;6661;310230;-84
2021/12/03 19:45:18;;;;;;;4.30;3.73;;;5.60;41.40;;;;;;21317;6653;66282;-84
2021/12/03 19:50:39;;;;;;;6.57;3.50;;;5.40;42.80;;;;;;21357;6653;72587;-84
2021/12/03 19:55:36;;;;;;;4.10;3.80;;;5.00;43.90;;;;;;21412;6653;67871;-86
2021/12/03 19:58:02;;;;;;;4.30;4.00;;;4.90;44.30;;;;;;21394;6653;66467;-88
2021/12/03 20:03:25;;;;;;;5.50;5.10;;;4.80;44.90;;;;;;21205;6653;271551;-86
2021/12/03 20:05:48;;;;;;;5.37;4.97;;;5.00;43.60;;;;;;21158;6653;305615;-87
2021/12/03 20:09:15;;;;;;;5.50;5.10;;;5.40;42.90;;;;;;21148;6653;300388;-86